ドン・ミゲル・イダルゴ・イ・コスティージャ国際空港の過去48時間の天気

ドン・ミゲル・イダルゴ・イ・コスティージャ国際空港 (Don Miguel / Guadalaj)

現在時刻: 9/22 19:08 CDT (9/23 00:08 UTC) 以下の時間は現地時間です。

過去48時間のMETAR気象情報
時間 風向 風速(m/s) 視程 気温(℃) 湿度(%) 気圧(hPa) 天気現象
22 18:47 静穏 0 10km以上 25 50 1009.6
22 17:50 東北東 5 10km以上 27 39 1021
22 16:47 北東 4 10km以上 27 37 1021
22 15:45 東北東 3 10km以上 28 40 1009.6
22 14:43 東北東 4 10km以上 26 45 1023
22 13:52 北北東 3 10km以上 26 51 1025
22 12:44 北北東 2 10km以上 25 54 1014.1
22 11:47 北東 5 10km以上 24 57 1026
22 10:48 北北東 4 10km以上 22 60 1026
22 09:46 北東 3 10km以上 21 69 1016.1
22 08:45 静穏 0 10km以上 18 83 1026
22 07:48 静穏 0 10km以上 17 83 1026
22 06:50 静穏 0 10km以上 18 83 1013.5
22 06:16 北東 4 10km以上 18 77 1025
22 04:40 3 10km以上 19 83 1025
22 03:52 南東 2 10km以上 19 78 1012.9
22 02:41 4 10km以上 19 88 1025
22 01:40 西 2 10km以上 18 83 1024
22 00:40 南南西 2 10km以上 19 78 1012.6
21 23:40 静穏 0 10km以上 20 78 1024
21 22:44 静穏 0 10km以上 21 78 1023
21 21:48 静穏 0 10km以上 22 69 1013.2
21 20:42 2 10km以上 23 65 1022
21 19:55 北北東 2 10km以上 24 57 1021
21 18:43 東北東 6 10km以上 25 44 1009.4
21 17:49 3 10km以上 28 40 1021
21 16:46 2 10km以上 27 45 1021
21 15:46 2 10km以上 27 48 1009.3
21 14:46 静穏 0 10km以上 26 48 1023
21 13:45 北北東 6 10km以上 26 51 1024
21 12:45 3 10km以上 25 54 1012.9
21 11:43 静穏 0 10km以上 22 65 1026
21 10:44 南南東 2 6450m 21 73 1026
21 09:46 静穏 0 4850m 19 83 1016.1 煙霧
21 08:46 静穏 0 4850m 18 88 1025 煙霧
21 07:45 静穏 0 6450m 17 88 1025
21 06:49 静穏 0 10km以上 18 88 1012.3
21 05:50 静穏 0 10km以上 18 88 1023
21 04:52 静穏 0 10km以上 18 88 1023
21 03:52 静穏 0 10km以上 18 88 1011.1
21 02:49 静穏 0 10km以上 18 83 1023
21 01:49 静穏 0 10km以上 18 88 1024
21 00:50 南西 2 10km以上 19 83 1013.3
20 23:57 西南西 2 10km以上 19 83 1025
20 22:47 北北西 2 10km以上 20 73 1024
20 21:44 静穏 0 10km以上 19 78 1012.9 弱い雨
20 20:42 西南西 5 10km以上 19 78 1022 弱い雨
20 20:18 北西 6 8050m 22 69 1022
20 20:05 北西 3 10km以上 23 61 1021 弱い雨
20 19:45 西北西 2 10km以上 23 61 1021
MMGL 222347Z 00000KT 10SM FEW025TCU 25/14 A3016 RMK SLP096 57009 900 8/200 CI
MMGL 222250Z 06009KT 10SM BKN025TCU 27/12 A3016 RMK 8/200 CI
MMGL 222147Z 04007KT 8SM BKN025TCU 27/11 A3016 RMK 8/200 CI
MMGL 222045Z 06006KT 10SM BKN025TCU 28/13 A3019 RMK SLP096 57031 910 8/200 CI
MMGL 221943Z 06008KT 8SM BKN025TCU 26/13 A3022 RMK 8/200 CI
MMGL 221852Z 02005KT 8SM SCT025 BKN300 26/15 A3026 RMK 8/108 ISOL AC
MMGL 221744Z 03004KT 8SM SCT030 BKN300 25/15 A3030 RMK SLP141 57012 912 8/108 AC
MMGL 221647Z 04010KT 8SM SCT020 BKN080 BKN300 24/15 A3030 RMK 8/138
MMGL 221548Z 03008KT 8SM SCT080 BKN300 22/14 A3031 RMK 8/038 CU
MMGL 221446Z 04005KT 8SM BKN300 21/15 A3033 RMK SLP161 52017 910 8/008
MMGL 221345Z 00000KT 8SM SCT080 BKN300 18/15 A3031 RMK 8/038
MMGL 221248Z 00000KT 7SM FEW080 SCT300 17/14 A3030 RMK 8/031 HZY
MMGL 221150Z 00000KT 8SM SCT025 BKN300 18/15 A3028 RMK SLP135 52003 910 8/508 AC
MMGL 221116Z RTD 05007KT 10SM SCT025 BKN090 BKN300 18/14 A3026 RMK 8/578
MMGL 220940Z 18005KT 8SM BKN025 BKN090 OVC300 19/16 A3028 RMK 8/463 RAB20E30
MMGL 220852Z 13004KT 10SM BKN025CB 19/15 A3026 RMK SLP129 52007 914 8/300
MMGL 220741Z 10007KT 8SM BKN025CB 19/17 A3026 RMK 8/300
MMGL 220640Z 26003KT 10SM SCT090 18/15 A3023 RMK 8/030 CI
MMGL 220540Z 20003KT 10SM SCT300 19/15 A3023 RMK SLP126 52003 956 8/001
MMGL 220440Z 00000KT 10SM FEW025 BKN300 20/16 A3023 RMK 8/508
MMGL 220344Z 00000KT 10SM SCT025 BKN300 21/17 A3022 RMK 8/508
MMGL 220248Z 00000KT 10SM BKN025 22/16 A3022 RMK SLP132 52021 905 8/400
MMGL 220142Z 19003KT 8SM SCT020CB BKN300 23/16 A3019 RMK 8/903 LTGIC W
MMGL 220055Z 02004KT 10SM SCT020CB BKN300 24/15 A3016 RMK 8/903 AC
MMGL 212343Z 06011KT 10SM SCT025CB BKN300 25/12 A3015 RMK SLP094 52002 912 8/903 OCNL DROPS
MMGL 212249Z 10005KT 10SM SCT025CB BKN300 28/13 A3014 RMK 8/903
MMGL 212146Z 17003KT 10SM BKN025TCU 27/14 A3015 RMK 8/200 CB E
MMGL 212046Z 10004KT 8SM BKN025 27/15 A3018 RMK SLP093 52029 951 8/100 CB-E CI
MMGL 211946Z 00000KT 8SM SCT020 26/14 A3021 RMK 8/100 ISOL AC
MMGL 211845Z 02012KT 8SM SCT020 26/15 A3025 RMK 8/100 ISOL AC/CI
MMGL 211745Z 09006KT 8SM SCT020 25/15 A3028 RMK SLP129 57014 910 8/100 AC
MMGL 211643Z 00000KT 6SM SCT015 22/15 A3029 RMK 8/100 HZY AC
MMGL 211544Z 15003KT 4SM FEW010 SCT015 BKN100 21/16 A3030 RMK 8/530 HZY CU
MMGL 211446Z 00000KT 3SM HZ SCT010 BKN015 OVC100 19/16 A3029 RMK SLP161 57017 922 8/57/
MMGL 211346Z 00000KT 3SM HZ FEW010 SCT015 BKN100 18/16 A3028 RMK 8/530
MMGL 211245Z 00000KT 4SM FEW008 SCT015 BKN100 17/15 A3026 RMK 8/530 HZY CI
MMGL 211149Z 00000KT 8SM BKN090 18/16 A3023 RMK SLP123 52007 915 8/030
MMGL 211050Z 00000KT 7SM BKN020 BKN100 18/16 A3022 RMK 8/570
MMGL 210952Z 00000KT 7SM BKN020 BKN100 18/16 A3021 RMK 8/570
MMGL 210852Z 00000KT 7SM BKN020 BKN100 18/16 A3021 RMK SLP111 57004 903 8/570
MMGL 210749Z 00000KT 7SM BKN020 BKN100 18/15 A3022 RMK 8/570
MMGL 210649Z 00000KT 7SM BKN020 BKN100 18/16 A3023 RMK 8/570
MMGL 210550Z 22004KT 7SM SCT020 BKN100 19/16 A3026 RMK SLP133 52014 905 8/570 OCNL DROPS
MMGL 210457Z RTD 24003KT 7SM SCT020 BKN100 19/16 A3026 RMK 8/570 OCNL DROPS
MMGL 210347Z 33003KT 7SM SCT020 BKN100 20/15 A3025 RMK 8/460 -RA E35 OCNL DROPS
MMGL 210244Z 00000KT 7SM -RA BKN020CB BKN100 19/15 A3021 RMK SLP129 52028 916 60085 8/960
MMGL 210142Z 25010KT 7SM -RA BKN020CB BKN100 19/15 A3018 RMK 60085 8/360 -RAB40
MMGL 210118Z 31012KT 5SM RA BKN020CB 22/16 A3018 RMK 8/300 RAB15
MMGL 210105Z 31005KT 7SM -RA BKN020CB 23/15 A3016 RMK 8/300 -RAB01/CI
MMGL 210045Z 30004KT 8SM BKN020CB 23/15 A3015 RMK 8/300 OCNL DROPS/CI